Airfield :
LOGIN :

Register | Disclaimer

   EN    FR    IT 

 










Legend :    VFR   Marginal VFR   IFR   Intensive IFR   Very Intensive IFR
Visi :
Ceiling :
>= 8 km
>= 3000ft
5 to 8 km
1000 to 3000 ft
1500m to 5 km
500 to 1000 ft
800 to 1500m
200 to 500 ft
< 800m
< 200 ft
Symbols :   Thunderstorms  Fog  Heavy snow  Heavy precipitations  Wind > 20 kt
SIGMETs :     Misc.  Thunderstorms  Icing  Turbulence  Mountain Waves  Volcanic Ashes







- Airport Elevation : 146 ft
- IATA code : RKE


EKRK - Roskilde Tune

CURRENT METAR :
  • 230520Z AUTO 30013KT 9999NDV FEW014/// BKN017/// BKN020/// 05/03 Q1013

EXPIRED METARs :
  • 230450Z AUTO 30012KT 9999NDV FEW014/// BKN018/// BKN022/// 05/03 Q1013
  • 230420Z AUTO 30013KT 9999NDV FEW013/// BKN018/// OVC022/// 05/02 Q1013
  • 230350Z AUTO 29011KT 9999NDV FEW013/// BKN018/// 04/03 Q1013
  • 230320Z AUTO 29012KT 9999NDV SCT015/// BKN018/// 04/03 Q1013
  • 230250Z AUTO 29010KT 9999NDV BKN014/// BKN017/// 04/03 Q1013

TAF TAF EKRK
Valid from the 23 at 03:00 until the 23 at 12:00 UTC


230200Z 2303/2312 28008KT 9999 SCT035
TEMPO 2303/2307 BKN010
BECMG 2305/2307 30015KT
TEMPO 2307/2310 30018G28KT -SHRA SCT030TCU
TEMPO 2310/2312 30018G28KT
No reported NOTAMs for that airfield.



MET'MAP, your aeronautical weather chart ! - Copyright ORBIFLY December 2007 - Disclaimer

ORBIFLY MET'MAP TEAM :

Programming & Development : Alexandra Zaïnal
Concept & Development : Baudouin d'Aumeries
Co-Development & Prog : Marc-Olivier Méhu
Technical & hardware support : Manuel Goepfert

Contact : metmap@orbifly.com




SOURCES & CREDITS :

   NOAA